Time;durP1;ratioP1;P1;durP2;ratioP2;P2;SDS_P1;SDS_P2;PMS_P1;PMS_P2;Temp;Humidity;BMP_temperature;BMP_pressure;BME280_temperature;BME280_humidity;BME280_pressure;Samples;Min_cycle;Max_cycle;Signal;HPM_P1;HPM_P2
2021/04/26 00:02:12;;;;;;;10.35;7.03;;;20.60;45.50;;;;;;5103709;28;20044;-41
2021/04/26 00:04:39;;;;;;;8.18;7.03;;;20.60;45.50;;;;;;5112723;28;20044;-38
2021/04/26 00:07:06;;;;;;;8.88;6.35;;;20.60;45.50;;;;;;5113044;28;20059;-38
2021/04/26 00:09:32;;;;;;;8.90;6.75;;;20.60;45.50;;;;;;5113511;28;20055;-38
2021/04/26 00:11:59;;;;;;;9.82;7.22;;;20.60;45.50;;;;;;5113670;28;20078;-39
2021/04/26 00:14:29;;;;;;;8.52;6.97;;;20.60;45.50;;;;;;5112113;28;20048;-37
2021/04/26 00:16:59;;;;;;;8.17;6.70;;;20.60;45.50;;;;;;5113870;27;20479;-38
2021/04/26 00:19:26;;;;;;;9.60;6.97;;;20.60;45.50;;;;;;5112344;28;20121;-39
2021/04/26 00:21:52;;;;;;;7.10;6.40;;;20.60;45.50;;;;;;5112594;27;20051;-39
2021/04/26 00:24:19;;;;;;;8.48;6.90;;;20.60;45.50;;;;;;5102480;28;20059;-39
2021/04/26 00:26:46;;;;;;;8.48;6.22;;;20.60;45.50;;;;;;5112492;28;20057;-38
2021/04/26 00:29:12;;;;;;;8.40;6.70;;;20.60;45.50;;;;;;5113369;27;20333;-38
2021/04/26 00:31:39;;;;;;;8.73;6.88;;;20.60;45.50;;;;;;5113260;27;20138;-39
2021/04/26 00:34:06;;;;;;;8.15;6.85;;;20.60;45.50;;;;;;5111815;28;20051;-38
2021/04/26 00:36:33;;;;;;;9.52;7.00;;;20.60;45.50;;;;;;5112625;28;20112;-38
2021/04/26 00:39:00;;;;;;;8.52;7.07;;;20.60;45.50;;;;;;5112559;28;20400;-38
2021/04/26 00:41:27;;;;;;;9.18;6.85;;;20.60;45.50;;;;;;5112164;28;20089;-39
2021/04/26 00:43:54;;;;;;;9.82;7.05;;;20.60;45.50;;;;;;5112837;28;20047;-38
2021/04/26 00:46:21;;;;;;;8.65;6.65;;;20.60;45.50;;;;;;5112424;28;20047;-38
2021/04/26 00:48:48;;;;;;;9.52;6.95;;;20.60;45.50;;;;;;5112215;28;20096;-38
2021/04/26 00:51:15;;;;;;;8.25;6.72;;;20.60;45.50;;;;;;5112361;28;20052;-38
2021/04/26 00:53:42;;;;;;;8.20;6.47;;;20.60;45.50;;;;;;5112255;27;20044;-38
2021/04/26 00:56:08;;;;;;;9.32;6.72;;;20.60;45.50;;;;;;5111804;28;20048;-38
2021/04/26 00:58:35;;;;;;;7.30;6.32;;;20.60;45.50;;;;;;5111027;28;20043;-38
2021/04/26 01:01:07;;;;;;;7.47;5.95;;;20.60;45.50;;;;;;5111418;28;20044;-38
2021/04/26 01:03:35;;;;;;;7.22;6.00;;;20.60;45.50;;;;;;5111951;28;20503;-38
2021/04/26 01:06:01;;;;;;;9.23;6.53;;;20.60;45.50;;;;;;5111565;28;20051;-38
2021/04/26 01:08:28;;;;;;;8.88;6.82;;;20.60;45.50;;;;;;5111258;28;20059;-38
2021/04/26 01:10:56;;;;;;;8.32;6.60;;;20.60;45.50;;;;;;5111983;28;20056;-37
2021/04/26 01:13:41;;;;;;;7.20;6.18;;;20.60;45.50;;;;;;5090075;28;20459;-38
2021/04/26 01:16:27;;;;;;;8.60;5.82;;;20.60;45.50;;;;;;5081779;28;20052;-37
2021/04/26 01:19:29;;;;;;;7.22;6.43;;;20.60;45.50;;;;;;5082695;28;20056;-38
2021/04/26 01:22:17;;;;;;;7.15;6.40;;;20.60;45.50;;;;;;5028765;28;20057;-38
2021/04/26 01:25:19;;;;;;;8.70;6.20;;;20.60;45.50;;;;;;5029111;28;20084;-38
2021/04/26 01:28:11;;;;;;;8.18;6.30;;;20.60;46.10;;;;;;5020014;28;20049;-38
2021/04/26 01:31:11;;;;;;;7.47;6.05;;;20.60;45.50;;;;;;5029310;28;20500;-38
2021/04/26 01:33:46;;;;;;;6.97;6.30;;;20.60;45.50;;;;;;5029248;28;20469;-38
2021/04/26 01:36:17;;;;;;;7.38;6.18;;;20.50;45.40;;;;;;5028508;28;20058;-39
2021/04/26 01:38:45;;;;;;;7.25;6.22;;;20.50;45.40;;;;;;5028705;28;20129;-38
2021/04/26 01:41:13;;;;;;;7.60;6.10;;;20.50;45.40;;;;;;5028662;28;20051;-38
2021/04/26 01:43:42;;;;;;;7.82;6.05;;;20.50;45.40;;;;;;5028207;28;20057;-38
2021/04/26 01:46:11;;;;;;;7.03;5.82;;;20.50;45.40;;;;;;5028764;28;20069;-38
2021/04/26 01:48:41;;;;;;;8.27;6.28;;;20.50;45.40;;;;;;5029055;28;20077;-38
2021/04/26 01:51:10;;;;;;;7.50;6.45;;;20.50;45.40;;;;;;5028191;28;20049;-38
2021/04/26 01:53:39;;;;;;;8.00;6.15;;;20.50;45.40;;;;;;5011984;28;20484;-38
2021/04/26 01:56:09;;;;;;;6.53;5.70;;;20.50;45.40;;;;;;5057335;28;20048;-38
2021/04/26 01:58:43;;;;;;;7.35;5.82;;;20.50;45.40;;;;;;5080463;28;20384;-38
2021/04/26 02:01:15;;;;;;;9.63;6.38;;;20.50;45.40;;;;;;5080871;28;20499;-40
2021/04/26 02:03:47;;;;;;;6.72;6.03;;;20.50;45.40;;;;;;5081045;28;20488;-38
2021/04/26 02:06:15;;;;;;;7.10;5.85;;;20.50;45.40;;;;;;5080960;28;20052;-38
2021/04/26 02:08:43;;;;;;;7.82;5.68;;;20.50;45.40;;;;;;5080091;28;20077;-39
2021/04/26 02:11:12;;;;;;;7.32;5.72;;;20.50;45.30;;;;;;5079892;28;20054;-38
2021/04/26 02:13:40;;;;;;;6.80;5.88;;;20.50;45.30;;;;;;5099619;28;20043;-38
2021/04/26 02:16:07;;;;;;;6.90;5.88;;;20.50;45.30;;;;;;5110527;28;20040;-38
2021/04/26 02:18:34;;;;;;;7.10;5.75;;;20.50;45.30;;;;;;5112189;28;20043;-38
2021/04/26 02:21:02;;;;;;;8.32;6.10;;;20.50;45.40;;;;;;5111645;28;20047;-38
2021/04/26 02:23:30;;;;;;;8.30;5.90;;;20.50;45.30;;;;;;5111071;28;20051;-38
2021/04/26 02:25:58;;;;;;;7.00;5.90;;;20.50;45.30;;;;;;5110947;28;20414;-39
2021/04/26 02:28:25;;;;;;;6.65;5.80;;;20.50;45.30;;;;;;5110942;28;20062;-39
2021/04/26 02:30:56;;;;;;;7.50;5.35;;;20.50;45.30;;;;;;5110201;28;20505;-38
2021/04/26 02:33:35;;;;;;;6.82;5.70;;;20.50;45.30;;;;;;5110788;28;20060;-38
2021/04/26 02:36:08;;;;;;;8.63;5.90;;;20.50;45.30;;;;;;5110254;28;20118;-38
2021/04/26 02:38:39;;;;;;;6.43;5.45;;;20.50;45.30;;;;;;5110849;28;20203;-38
2021/04/26 02:41:11;;;;;;;6.78;5.65;;;20.50;45.30;;;;;;5110067;28;20035;-38
2021/04/26 02:43:51;;;;;;;6.85;5.25;;;20.50;45.30;;;;;;5100430;28;20040;-38
2021/04/26 02:46:22;;;;;;;6.25;5.55;;;20.50;45.30;;;;;;5110224;28;20051;-38
2021/04/26 02:48:50;;;;;;;6.07;5.43;;;20.50;45.30;;;;;;5110379;28;20051;-38
2021/04/26 02:51:21;;;;;;;7.03;5.93;;;20.50;45.90;;;;;;5110814;28;20411;-38
2021/04/26 02:53:49;;;;;;;7.30;5.78;;;20.50;45.30;;;;;;5110592;28;20048;-38
2021/04/26 02:56:18;;;;;;;7.35;5.70;;;20.50;45.30;;;;;;5112333;28;20043;-38
2021/04/26 02:58:46;;;;;;;7.80;5.38;;;20.50;45.30;;;;;;5115421;27;20052;-39
2021/04/26 03:01:14;;;;;;;5.78;5.18;;;20.50;45.30;;;;;;5114218;28;20518;-38
2021/04/26 03:03:43;;;;;;;7.22;5.65;;;20.50;45.30;;;;;;5114026;27;20047;-38
2021/04/26 03:06:11;;;;;;;6.88;5.50;;;20.50;45.30;;;;;;5113653;28;20067;-38
2021/04/26 03:08:39;;;;;;;7.35;5.55;;;20.50;45.30;;;;;;5113822;28;20047;-38
2021/04/26 03:11:08;;;;;;;6.90;5.53;;;20.50;45.30;;;;;;5113437;28;20051;-38
2021/04/26 03:13:36;;;;;;;7.28;5.50;;;20.50;45.30;;;;;;5113905;28;20055;-38
2021/04/26 03:16:03;;;;;;;6.65;5.20;;;20.50;45.30;;;;;;5113683;27;20134;-38
2021/04/26 03:18:32;;;;;;;6.78;5.40;;;20.50;45.30;;;;;;5114217;27;20044;-38
2021/04/26 03:21:01;;;;;;;6.60;5.05;;;20.50;45.30;;;;;;5114269;27;20070;-38
2021/04/26 03:23:28;;;;;;;6.03;5.20;;;20.50;45.30;;;;;;5113632;28;20104;-39
2021/04/26 03:25:57;;;;;;;6.60;5.45;;;20.50;45.30;;;;;;5114879;27;20055;-38
2021/04/26 03:28:24;;;;;;;6.15;5.03;;;20.50;45.30;;;;;;5113577;28;20056;-39
2021/04/26 03:30:51;;;;;;;6.93;5.55;;;20.50;45.30;;;;;;5113367;28;20047;-38
2021/04/26 03:33:18;;;;;;;5.82;5.20;;;20.50;45.30;;;;;;5113919;28;20047;-38
2021/04/26 03:35:46;;;;;;;6.32;5.45;;;20.50;45.30;;;;;;5103365;28;20052;-38
2021/04/26 03:38:15;;;;;;;6.03;5.10;;;20.50;45.30;;;;;;5114249;27;20035;-38
2021/04/26 03:40:42;;;;;;;5.65;5.00;;;20.50;45.30;;;;;;5113060;27;20039;-38
2021/04/26 03:43:09;;;;;;;6.00;5.00;;;20.50;45.20;;;;;;5113527;28;20067;-38
2021/04/26 03:45:38;;;;;;;5.75;4.85;;;20.50;45.20;;;;;;5113331;27;21649;-38
2021/04/26 03:48:06;;;;;;;7.05;4.90;;;20.50;45.20;;;;;;5113585;27;20047;-38
2021/04/26 03:50:32;;;;;;;6.00;5.20;;;20.50;45.20;;;;;;5113804;28;20055;-40
2021/04/26 03:52:59;;;;;;;5.90;5.07;;;20.50;45.30;;;;;;5113597;28;20056;-38
2021/04/26 03:55:27;;;;;;;6.88;5.50;;;20.40;45.10;;;;;;5113866;27;20050;-38
2021/04/26 03:57:54;;;;;;;6.18;5.25;;;20.40;45.10;;;;;;5114202;27;20040;-39
2021/04/26 04:00:22;;;;;;;6.82;4.90;;;20.40;45.10;;;;;;5113119;27;20043;-39
2021/04/26 04:02:49;;;;;;;5.05;4.45;;;20.50;45.20;;;;;;5113020;27;20055;-38
2021/04/26 04:05:17;;;;;;;5.68;5.00;;;20.40;45.10;;;;;;5113003;28;20124;-39
2021/04/26 04:07:44;;;;;;;6.63;5.43;;;20.40;45.10;;;;;;5112759;27;20054;-38
2021/04/26 04:10:13;;;;;;;6.13;4.88;;;20.40;45.10;;;;;;5102838;28;20043;-38
2021/04/26 04:12:40;;;;;;;5.38;4.85;;;20.40;45.10;;;;;;5112246;28;20051;-38
2021/04/26 04:15:09;;;;;;;6.65;4.95;;;20.40;45.70;;;;;;5113139;27;20050;-38
2021/04/26 04:17:39;;;;;;;5.97;5.38;;;20.40;45.10;;;;;;5113077;28;20123;-38
2021/04/26 04:20:09;;;;;;;6.03;4.68;;;20.40;45.10;;;;;;5112652;28;20043;-38
2021/04/26 04:22:35;;;;;;;5.82;4.90;;;20.40;45.10;;;;;;5112643;27;20043;-38
2021/04/26 04:25:04;;;;;;;7.05;5.55;;;20.40;45.10;;;;;;5113053;27;20054;-38
2021/04/26 04:27:31;;;;;;;5.32;4.80;;;20.40;45.10;;;;;;5113039;27;20057;-38
2021/04/26 04:29:58;;;;;;;5.70;4.97;;;20.40;45.10;;;;;;5113206;28;20320;-38
2021/04/26 04:32:25;;;;;;;5.80;4.53;;;20.40;45.10;;;;;;5112032;28;20148;-38
2021/04/26 04:34:52;;;;;;;6.10;4.78;;;20.40;45.10;;;;;;5112513;28;20051;-38
2021/04/26 04:37:19;;;;;;;5.47;4.80;;;20.40;45.10;;;;;;5112496;28;20043;-39
2021/04/26 04:39:45;;;;;;;5.57;4.85;;;20.40;45.10;;;;;;5101683;28;20051;-39
2021/04/26 04:42:12;;;;;;;6.43;5.20;;;20.40;45.10;;;;;;5112437;28;20043;-39
2021/04/26 04:44:39;;;;;;;6.18;5.00;;;20.40;45.10;;;;;;5112960;28;20051;-39
2021/04/26 04:47:06;;;;;;;6.13;4.78;;;20.40;45.10;;;;;;5112404;28;20407;-39
2021/04/26 04:49:33;;;;;;;5.68;4.70;;;20.40;45.10;;;;;;5112264;28;20044;-38
2021/04/26 04:52:00;;;;;;;6.03;4.90;;;20.40;45.10;;;;;;5111430;28;20052;-38
2021/04/26 04:54:27;;;;;;;6.07;4.57;;;20.40;45.10;;;;;;5112406;28;20044;-39
2021/04/26 04:56:54;;;;;;;6.00;4.70;;;20.40;45.10;;;;;;5111961;27;20055;-38
2021/04/26 04:59:21;;;;;;;5.90;4.85;;;20.40;45.00;;;;;;5111059;28;20043;-38
2021/04/26 05:01:48;;;;;;;5.72;4.72;;;20.40;45.00;;;;;;5112317;27;20040;-38
2021/04/26 05:04:15;;;;;;;5.30;4.38;;;20.40;45.10;;;;;;5111209;28;20578;-39
2021/04/26 05:06:42;;;;;;;5.45;4.53;;;20.40;45.00;;;;;;5112180;28;20045;-38
2021/04/26 05:09:09;;;;;;;5.25;4.25;;;20.40;45.00;;;;;;5111017;28;20073;-41
2021/04/26 05:11:36;;;;;;;6.00;4.53;;;20.40;45.00;;;;;;5112232;28;20043;-38
2021/04/26 05:14:03;;;;;;;4.63;4.13;;;20.40;45.00;;;;;;5111859;28;20411;-38
2021/04/26 05:16:33;;;;;;;6.32;4.95;;;20.40;45.00;;;;;;5112155;28;20070;-38
2021/04/26 05:19:02;;;;;;;5.88;4.53;;;20.40;45.00;;;;;;5109981;28;20067;-38
2021/04/26 05:21:29;;;;;;;5.13;4.60;;;20.40;45.00;;;;;;5111693;28;20058;-38
2021/04/26 05:23:56;;;;;;;5.28;4.53;;;20.50;45.10;;;;;;5111635;28;20054;-38
2021/04/26 05:26:27;;;;;;;6.25;4.97;;;20.50;45.10;;;;;;5111568;27;20044;-38
2021/04/26 05:28:54;;;;;;;5.63;4.85;;;20.40;44.90;;;;;;5110721;28;20040;-38
2021/04/26 05:31:21;;;;;;;6.18;4.53;;;20.50;45.00;;;;;;5110805;28;20048;-38
2021/04/26 05:33:48;;;;;;;5.28;4.47;;;20.50;45.00;;;;;;5113116;28;20503;-39
2021/04/26 05:36:16;;;;;;;6.20;5.18;;;20.40;44.90;;;;;;5110789;28;20048;-38
2021/04/26 05:38:47;;;;;;;6.05;4.50;;;20.50;45.00;;;;;;5111756;28;20127;-39
2021/04/26 05:41:14;;;;;;;5.22;4.43;;;20.50;45.00;;;;;;5111556;28;20052;-39
2021/04/26 05:43:41;;;;;;;5.85;4.97;;;20.50;45.00;;;;;;5110689;28;20046;-38
2021/04/26 05:46:08;;;;;;;5.53;4.85;;;20.50;45.00;;;;;;5111575;28;20052;-38
2021/04/26 05:48:35;;;;;;;5.38;4.32;;;20.50;45.00;;;;;;5111634;27;20082;-38
2021/04/26 05:51:01;;;;;;;4.85;4.07;;;20.50;45.00;;;;;;5111011;28;20100;-37
2021/04/26 05:53:28;;;;;;;6.05;4.70;;;20.50;44.90;;;;;;5110870;28;20059;-39
2021/04/26 05:56:01;;;;;;;4.50;4.00;;;20.50;44.90;;;;;;5110309;28;20058;-38
2021/04/26 05:58:28;;;;;;;4.82;4.20;;;20.50;45.00;;;;;;5110989;28;20040;-39
2021/04/26 06:00:55;;;;;;;5.00;4.45;;;20.50;44.90;;;;;;5110569;27;20055;-39
2021/04/26 06:03:21;;;;;;;6.22;5.20;;;20.50;44.90;;;;;;5110592;28;20412;-39
2021/04/26 06:05:49;;;;;;;4.75;4.28;;;20.50;44.90;;;;;;5111464;28;20096;-40
2021/04/26 06:08:17;;;;;;;5.47;4.10;;;20.50;44.90;;;;;;5110526;28;20047;-39
2021/04/26 06:10:44;;;;;;;4.80;4.30;;;20.50;44.90;;;;;;5111366;28;20048;-38
2021/04/26 06:13:11;;;;;;;5.35;4.35;;;20.50;44.90;;;;;;5110551;28;20077;-37
2021/04/26 06:15:38;;;;;;;4.60;3.95;;;20.50;44.90;;;;;;5114056;28;20040;-40
2021/04/26 06:18:16;;;;;;;5.22;4.35;;;20.50;44.90;;;;;;5112831;28;20054;-41
2021/04/26 06:20:45;;;;;;;5.32;4.38;;;20.50;44.90;;;;;;5110591;28;20048;-39
2021/04/26 06:23:12;;;;;;;5.72;4.30;;;20.50;44.90;;;;;;5110710;28;20164;-41
2021/04/26 06:25:40;;;;;;;6.03;4.65;;;20.50;44.80;;;;;;5110855;28;20062;-40
2021/04/26 06:28:11;;;;;;;5.00;4.45;;;20.50;44.80;;;;;;5110400;28;20411;-39
2021/04/26 06:30:39;;;;;;;4.10;3.70;;;20.50;44.80;;;;;;5103353;28;20043;-40
2021/04/26 06:33:09;;;;;;;4.50;4.10;;;20.50;44.80;;;;;;5105106;27;20046;-39
2021/04/26 06:35:36;;;;;;;4.50;4.10;;;20.50;44.80;;;;;;5115201;27;20042;-39
2021/04/26 06:38:03;;;;;;;6.07;4.38;;;20.50;44.80;;;;;;5117202;27;20070;-47
2021/04/26 06:40:30;;;;;;;3.95;3.55;;;20.50;44.80;;;;;;5100462;27;20075;-39
2021/04/26 06:42:57;;;;;;;4.95;4.50;;;20.60;44.80;;;;;;5116580;28;20058;-38
2021/04/26 06:45:24;;;;;;;4.60;4.18;;;20.50;44.80;;;;;;5135041;27;20051;-39
2021/04/26 06:47:52;;;;;;;5.53;4.53;;;20.50;44.80;;;;;;5116985;27;20052;-43
2021/04/26 06:50:19;;;;;;;4.57;3.70;;;20.50;44.80;;;;;;5116289;28;20079;-40
2021/04/26 06:52:48;;;;;;;4.93;3.97;;;20.60;44.80;;;;;;5117542;27;20048;-41
2021/04/26 06:55:16;;;;;;;5.18;4.10;;;20.60;44.80;;;;;;5133443;27;20047;-39
2021/04/26 06:57:43;;;;;;;5.07;4.07;;;20.50;44.70;;;;;;5117698;27;20050;-39
2021/04/26 07:00:11;;;;;;;4.32;3.60;;;20.60;44.80;;;;;;5117075;27;20514;-39
2021/04/26 07:02:38;;;;;;;5.00;4.22;;;20.60;44.70;;;;;;5117394;27;20054;-41
2021/04/26 07:05:07;;;;;;;4.95;4.03;;;20.60;44.70;;;;;;5117707;27;20457;-40
2021/04/26 07:07:34;;;;;;;4.85;4.20;;;20.60;44.70;;;;;;5099344;28;20047;-40
2021/04/26 07:10:02;;;;;;;4.20;3.80;;;20.60;44.70;;;;;;5127191;27;20055;-39
2021/04/26 07:12:29;;;;;;;4.68;3.42;;;20.60;44.70;;;;;;5133868;27;20058;-41
2021/04/26 07:14:56;;;;;;;4.57;3.70;;;20.60;44.70;;;;;;5133722;27;20391;-45
2021/04/26 07:17:23;;;;;;;6.93;4.32;;;20.60;44.60;;;;;;5126903;27;20047;-40
2021/04/26 07:19:51;;;;;;;5.25;3.95;;;20.60;44.60;;;;;;5115438;28;20047;-42
2021/04/26 07:22:18;;;;;;;4.18;3.78;;;20.60;44.60;;;;;;5116875;27;20043;-39
2021/04/26 07:24:46;;;;;;;5.30;4.60;;;20.60;44.60;;;;;;5116192;28;20044;-39
2021/04/26 07:27:13;;;;;;;6.25;3.85;;;20.60;44.60;;;;;;5123739;27;20043;-40
2021/04/26 07:29:40;;;;;;;4.72;3.80;;;20.60;44.60;;;;;;5134675;27;20054;-39
2021/04/26 07:32:07;;;;;;;5.40;4.00;;;20.60;44.60;;;;;;5131046;27;20103;-42
2021/04/26 07:34:33;;;;;;;3.88;3.47;;;20.60;44.60;;;;;;5133508;27;20548;-38
2021/04/26 07:37:01;;;;;;;4.32;3.70;;;20.60;44.50;;;;;;5116388;27;20043;-38
2021/04/26 07:39:28;;;;;;;5.40;3.78;;;20.60;44.50;;;;;;5116542;27;20043;-39
2021/04/26 07:41:55;;;;;;;4.47;3.78;;;20.60;44.50;;;;;;5115311;27;20048;-39
2021/04/26 07:44:22;;;;;;;4.80;4.00;;;20.60;44.50;;;;;;5098457;28;20054;-39
2021/04/26 07:46:48;;;;;;;4.68;3.70;;;20.70;44.60;;;;;;5114230;28;20507;-38
2021/04/26 07:49:15;;;;;;;3.72;3.40;;;20.70;44.60;;;;;;5130490;27;20052;-39
2021/04/26 07:51:42;;;;;;;4.00;3.15;;;20.70;44.60;;;;;;5131123;27;20054;-38
2021/04/26 07:54:09;;;;;;;5.85;3.70;;;20.70;44.60;;;;;;5124184;27;20054;-38
2021/04/26 07:56:36;;;;;;;5.63;3.90;;;20.70;44.60;;;;;;5112756;28;20111;-41
2021/04/26 07:59:03;;;;;;;4.47;3.70;;;20.70;44.60;;;;;;5112902;28;20477;-38
2021/04/26 08:01:30;;;;;;;3.58;3.05;;;20.70;44.60;;;;;;5113306;28;20044;-39
2021/04/26 08:03:56;;;;;;;3.83;3.47;;;20.70;44.50;;;;;;5112553;28;20127;-39
2021/04/26 08:06:23;;;;;;;4.65;3.72;;;20.70;44.60;;;;;;5113104;28;20047;-39
2021/04/26 08:08:50;;;;;;;7.00;3.78;;;20.70;44.60;;;;;;5111778;28;20047;-39
2021/04/26 08:11:17;;;;;;;5.35;3.85;;;20.70;44.60;;;;;;5113860;27;20043;-39
2021/04/26 08:13:44;;;;;;;4.22;3.60;;;20.70;44.60;;;;;;5088266;28;20053;-38
2021/04/26 08:16:11;;;;;;;4.32;3.78;;;20.70;44.50;;;;;;5082275;28;20048;-39
2021/04/26 08:18:38;;;;;;;4.15;3.58;;;20.70;44.50;;;;;;5082132;28;20052;-38
2021/04/26 08:21:05;;;;;;;4.05;2.92;;;20.70;44.50;;;;;;5083221;28;20084;-39
2021/04/26 08:23:32;;;;;;;4.95;3.38;;;20.70;44.50;;;;;;5081741;28;20051;-39
2021/04/26 08:25:59;;;;;;;4.57;3.33;;;20.70;44.50;;;;;;5082469;28;20056;-40
2021/04/26 08:28:27;;;;;;;4.13;3.47;;;20.70;44.60;;;;;;5081184;28;20052;-38
2021/04/26 08:30:54;;;;;;;4.13;3.65;;;20.70;44.50;;;;;;5081937;28;20051;-41
2021/04/26 08:33:20;;;;;;;5.18;3.20;;;20.80;44.60;;;;;;5082699;28;20070;-43
2021/04/26 08:35:47;;;;;;;4.25;3.42;;;20.80;44.60;;;;;;5081975;28;20051;-41
2021/04/26 08:38:14;;;;;;;3.50;3.20;;;20.80;44.60;;;;;;5086623;28;20071;-39
2021/04/26 08:40:40;;;;;;;4.28;3.58;;;20.80;44.60;;;;;;5083570;28;20075;-42
2021/04/26 08:43:08;;;;;;;3.60;3.10;;;20.80;44.60;;;;;;5082383;28;20055;-40
2021/04/26 08:45:35;;;;;;;3.97;3.13;;;20.80;44.60;;;;;;5082230;28;20477;-42
2021/04/26 08:48:03;;;;;;;3.78;3.28;;;20.80;44.60;;;;;;5082523;28;20151;-41
2021/04/26 08:50:31;;;;;;;4.38;3.50;;;20.80;44.60;;;;;;5080915;28;20052;-40
2021/04/26 08:52:58;;;;;;;3.50;2.95;;;20.80;44.60;;;;;;5079672;28;20496;-39
2021/04/26 08:55:25;;;;;;;4.35;3.53;;;20.80;44.60;;;;;;5081793;28;20040;-39
2021/04/26 08:57:53;;;;;;;4.10;3.30;;;20.80;44.60;;;;;;5082157;28;20040;-40
2021/04/26 09:00:21;;;;;;;3.72;3.03;;;20.80;44.60;;;;;;5081882;28;20056;-43
2021/04/26 09:02:55;;;;;;;4.68;3.60;;;20.80;44.60;;;;;;5081677;28;20484;-38
2021/04/26 09:05:29;;;;;;;;;;;20.80;44.60;;;;;;5081835;28;20534;-41
2021/04/26 09:07:58;;;;;;;3.72;3.22;;;20.80;44.60;;;;;;5081474;28;19923;-38
2021/04/26 09:10:44;;;;;;;3.40;3.08;;;20.80;44.60;;;;;;5080665;28;20808;-40
2021/04/26 09:13:30;;;;;;;4.07;3.22;;;20.80;44.60;;;;;;5092972;28;20074;-39
2021/04/26 09:16:21;;;;;;;4.35;3.33;;;20.80;44.70;;;;;;5111751;28;20043;-41
2021/04/26 09:18:54;;;;;;;3.58;3.10;;;20.80;44.70;;;;;;5112382;28;20047;-41
2021/04/26 09:21:32;;;;;;;3.92;3.13;;;20.80;44.70;;;;;;5112221;28;20074;-39
2021/04/26 09:24:36;;;;;;;4.13;3.40;;;20.80;44.70;;;;;;5111698;28;20411;-40
2021/04/26 09:27:12;;;;;;;3.75;3.13;;;20.80;44.70;;;;;;5111577;28;20074;-41
2021/04/26 09:29:40;;;;;;;3.42;2.90;;;20.80;44.70;;;;;;5111535;28;20454;-40
2021/04/26 09:32:11;;;;;;;3.70;3.20;;;20.80;44.70;;;;;;5111523;28;20126;-37
2021/04/26 09:34:44;;;;;;;3.55;3.03;;;20.80;44.70;;;;;;5111450;28;20047;-39
2021/04/26 09:37:28;;;;;;;4.90;3.40;;;20.80;44.70;;;;;;5110722;28;20055;-39
2021/04/26 09:40:10;;;;;;;3.40;2.92;;;20.80;44.70;;;;;;5111835;28;20048;-40
2021/04/26 09:42:48;;;;;;;3.80;3.22;;;20.80;44.70;;;;;;5112515;27;20047;-39
2021/04/26 09:45:39;;;;;;;3.30;3.00;;;20.80;44.80;;;;;;5111388;28;20047;-38
2021/04/26 09:48:19;;;;;;;4.13;3.15;;;20.80;44.70;;;;;;5111876;28;20521;-40
2021/04/26 09:51:02;;;;;;;3.92;2.97;;;20.90;44.80;;;;;;5113596;28;20437;-40
2021/04/26 09:53:34;;;;;;;3.65;3.00;;;20.80;44.70;;;;;;5111992;28;20051;-38
2021/04/26 09:56:11;;;;;;;3.22;2.63;;;20.90;44.80;;;;;;5111237;28;20052;-42
2021/04/26 09:58:40;;;;;;;3.40;2.70;;;20.90;44.80;;;;;;5110807;27;20052;-43
2021/04/26 10:01:13;;;;;;;3.60;3.00;;;20.90;44.80;;;;;;5111515;28;20433;-39
2021/04/26 10:03:41;;;;;;;4.07;3.00;;;20.90;44.80;;;;;;5110962;27;20563;-43
2021/04/26 10:06:09;;;;;;;3.60;3.00;;;20.90;44.80;;;;;;5110763;28;20055;-40
2021/04/26 10:08:37;;;;;;;3.40;2.75;;;20.90;44.80;;;;;;5110414;28;20063;-41
2021/04/26 10:11:04;;;;;;;3.72;3.05;;;20.90;44.80;;;;;;5111216;28;20054;-41
2021/04/26 10:13:36;;;;;;;3.75;2.88;;;20.90;44.80;;;;;;5109764;28;20059;-38
2021/04/26 10:16:06;;;;;;;3.17;2.70;;;20.90;44.80;;;;;;5110285;28;20536;-38
2021/04/26 10:18:38;;;;;;;3.17;2.60;;;20.90;44.80;;;;;;5110120;28;20040;-39
2021/04/26 10:21:18;;;;;;;3.35;3.03;;;20.90;44.80;;;;;;5110246;28;20047;-39
2021/04/26 10:23:49;;;;;;;3.30;2.97;;;20.90;44.80;;;;;;5110213;28;20075;-39
2021/04/26 10:26:50;;;;;;;3.35;2.72;;;20.90;45.40;;;;;;5111272;28;20051;-39
2021/04/26 10:29:26;;;;;;;3.20;2.90;;;20.90;44.80;;;;;;5109515;28;20060;-39
2021/04/26 10:32:07;;;;;;;3.55;2.80;;;21.00;44.90;;;;;;5110677;28;20048;-39
2021/04/26 10:34:43;;;;;;;3.28;2.67;;;21.00;44.90;;;;;;5100526;28;20055;-39
2021/04/26 10:37:15;;;;;;;3.70;2.95;;;21.00;44.90;;;;;;5110393;28;20048;-38
2021/04/26 10:39:58;;;;;;;4.07;3.00;;;20.90;44.80;;;;;;5110541;28;20043;-40
2021/04/26 10:42:40;;;;;;;2.85;2.30;;;21.00;44.90;;;;;;5110319;28;20052;-38
2021/04/26 10:45:20;;;;;;;3.55;2.38;;;21.00;44.90;;;;;;5110540;28;20123;-39
2021/04/26 10:48:05;;;;;;;3.22;2.80;;;21.00;44.90;;;;;;5110549;28;20127;-38
2021/04/26 10:50:37;;;;;;;3.10;2.70;;;21.00;44.90;;;;;;5110567;28;20071;-40
2021/04/26 10:53:08;;;;;;;2.83;2.33;;;21.00;44.90;;;;;;5110375;28;20056;-38
2021/04/26 10:55:39;;;;;;;2.75;2.40;;;21.00;44.90;;;;;;5110893;28;20135;-38
2021/04/26 10:58:24;;;;;;;3.38;3.00;;;21.00;44.90;;;;;;5110673;28;20051;-39
2021/04/26 11:00:52;;;;;;;3.85;3.00;;;21.00;44.90;;;;;;5109986;28;20056;-38
2021/04/26 11:03:21;;;;;;;3.83;2.88;;;21.00;44.90;;;;;;5110570;28;20052;-38
2021/04/26 11:05:53;;;;;;;3.13;2.50;;;21.00;44.90;;;;;;5109897;28;20499;-38
2021/04/26 11:08:37;;;;;;;3.60;2.80;;;21.00;45.50;;;;;;5109517;28;20058;-38
2021/04/26 11:11:29;;;;;;;3.00;2.50;;;21.00;44.90;;;;;;5110574;28;20079;-39
2021/04/26 11:14:02;;;;;;;3.40;2.83;;;21.00;44.90;;;;;;5109258;28;20063;-38
2021/04/26 11:17:04;;;;;;;3.40;2.78;;;21.00;45.00;;;;;;5111152;28;20048;-38
2021/04/26 11:19:33;;;;;;;4.35;2.67;;;21.00;45.50;;;;;;5113437;27;20051;-38
2021/04/26 11:22:01;;;;;;;3.38;2.72;;;21.00;45.00;;;;;;5114694;27;20054;-39
2021/04/26 11:24:27;;;;;;;2.80;2.50;;;21.00;44.90;;;;;;5114332;28;20039;-39
2021/04/26 11:27:13;;;;;;;3.22;2.55;;;21.00;44.90;;;;;;5114120;28;20058;-40
2021/04/26 11:29:44;;;;;;;2.95;2.22;;;21.00;44.90;;;;;;5113695;28;20047;-38
2021/04/26 11:32:12;;;;;;;3.50;2.75;;;21.00;44.90;;;;;;5112690;27;20047;-39
2021/04/26 11:34:53;;;;;;;3.05;2.75;;;21.00;44.90;;;;;;5113653;28;20520;-39
2021/04/26 11:37:21;;;;;;;3.17;2.80;;;21.00;44.90;;;;;;5113654;27;20043;-38
2021/04/26 11:39:50;;;;;;;2.95;2.65;;;21.00;44.90;;;;;;5113084;28;20047;-38
2021/04/26 11:42:31;;;;;;;3.15;2.85;;;21.00;44.90;;;;;;5113820;27;20407;-38
2021/04/26 11:45:05;;;;;;;3.30;2.60;;;21.00;44.90;;;;;;5103266;28;20219;-37
2021/04/26 11:47:33;;;;;;;3.00;2.63;;;21.00;44.90;;;;;;5113562;28;20404;-37
2021/04/26 11:50:01;;;;;;;3.28;2.92;;;21.00;44.90;;;;;;5113703;28;20487;-38
2021/04/26 11:52:30;;;;;;;2.90;2.67;;;21.00;44.90;;;;;;5113537;28;20043;-37
2021/04/26 11:55:03;;;;;;;3.35;2.67;;;21.00;44.90;;;;;;5114170;27;20043;-38
2021/04/26 11:57:48;;;;;;;3.25;2.80;;;21.10;45.00;;;;;;5114244;27;20401;-37
2021/04/26 12:00:19;;;;;;;2.47;2.20;;;21.00;44.90;;;;;;5113095;28;20055;-38
2021/04/26 12:02:49;;;;;;;3.00;2.70;;;21.00;44.90;;;;;;5113047;28;20131;-37
2021/04/26 12:05:20;;;;;;;3.22;2.50;;;21.10;45.00;;;;;;5112337;27;20590;-38
2021/04/26 12:07:47;;;;;;;3.03;2.47;;;21.10;45.00;;;;;;5111968;27;20048;-38
2021/04/26 12:10:20;;;;;;;3.40;2.67;;;21.10;44.90;;;;;;5112775;28;20505;-38
2021/04/26 12:12:47;;;;;;;2.80;2.50;;;21.10;44.90;;;;;;5112967;28;20116;-37
2021/04/26 12:15:17;;;;;;;3.33;2.42;;;21.10;45.00;;;;;;5113181;28;20380;-37
2021/04/26 12:17:50;;;;;;;2.92;2.65;;;21.10;44.90;;;;;;5112463;27;20043;-39
2021/04/26 12:20:22;;;;;;;2.85;2.33;;;21.10;45.00;;;;;;5112898;27;20533;-38
2021/04/26 12:22:52;;;;;;;2.90;2.42;;;21.10;45.00;;;;;;5112811;27;20044;-38
2021/04/26 12:25:19;;;;;;;3.40;2.50;;;21.10;44.90;;;;;;5112495;28;20119;-38
2021/04/26 12:27:46;;;;;;;2.92;2.40;;;21.10;44.90;;;;;;5112547;28;20480;-38
2021/04/26 12:30:20;;;;;;;3.28;2.72;;;21.10;45.00;;;;;;5112318;28;20129;-38
2021/04/26 12:32:49;;;;;;;2.70;2.20;;;21.10;44.90;;;;;;5112712;28;20088;-38
2021/04/26 12:35:19;;;;;;;4.22;2.92;;;21.10;44.90;;;;;;5112294;28;20050;-37
2021/04/26 12:37:49;;;;;;;7.05;2.35;;;21.10;44.90;;;;;;5112672;28;20047;-38
2021/04/26 12:40:34;;;;;;;3.25;2.53;;;21.10;44.90;;;;;;5111728;27;20059;-39
2021/04/26 12:43:05;;;;;;;2.45;2.08;;;21.10;44.90;;;;;;5112258;28;20047;-38
2021/04/26 12:45:42;;;;;;;3.22;2.60;;;21.10;45.00;;;;;;5111466;28;20055;-37
2021/04/26 12:48:13;;;;;;;2.90;2.58;;;21.10;44.90;;;;;;5112289;28;20052;-38
2021/04/26 12:50:46;;;;;;;2.85;2.55;;;21.10;44.90;;;;;;5112421;27;20100;-38
2021/04/26 12:53:28;;;;;;;2.97;2.55;;;21.10;44.90;;;;;;5111609;28;20043;-40
2021/04/26 12:56:02;;;;;;;2.58;2.20;;;21.10;44.90;;;;;;5102277;28;20048;-38
2021/04/26 12:58:42;;;;;;;2.47;2.28;;;21.10;44.90;;;;;;5112332;28;20509;-38
2021/04/26 13:01:17;;;;;;;3.00;2.70;;;21.10;44.90;;;;;;5111497;28;20059;-38
2021/04/26 13:03:52;;;;;;;3.60;2.67;;;21.10;44.90;;;;;;5111765;28;20040;-39
2021/04/26 13:06:25;;;;;;;3.13;2.45;;;21.10;44.90;;;;;;5111703;28;20051;-41